| Date | Time | Temp. (oF) | Dew Point (oF) | Rel. Hum. (%) | Press. (in.) | Wind Dir. | Wind Speed (mph) | Hourly Rainfall (in.) |
|
|---|---|---|---|---|---|---|---|---|---|
| 1 | 06/18 | 00:00 | 65 | 53 | 67 | 30.06 | N | 0 | 0.00 |
| 2 | 06/17 | 23:00 | 67 | 54 | 64 | 30.05 | NNE | 5 | 0.00 |
| 3 | 06/17 | 22:00 | 68 | 54 | 62 | 30.04 | NE | 9 | 0.00 |
| 4 | 06/17 | 21:00 | 70 | 55 | 61 | 30.00 | NE | 10 | 0.00 |
| 5 | 06/17 | 20:00 | 74 | 56 | 55 | 29.97 | NE | 10 | 0.00 |
| 6 | 06/17 | 19:00 | 76 | 56 | 51 | 29.95 | N | 4 | 0.00 |
| 7 | 06/17 | 18:00 | 78 | 56 | 48 | 29.93 | N | 8 | 0.00 |
| 8 | 06/17 | 17:00 | 78 | 57 | 50 | 29.91 | NW | 4 | 0.00 |
| 9 | 06/17 | 16:00 | 80 | 58 | 49 | 29.91 | N | 7 | 0.00 |
| 10 | 06/17 | 15:00 | 80 | 60 | 52 | 29.91 | NNE | 5 | 0.00 |
| 11 | 06/17 | 14:00 | 80 | 61 | 53 | 29.92 | N | 6 | 0.00 |
| 12 | 06/17 | 13:00 | 80 | 61 | 53 | 29.92 | NNW | 6 | 0.00 |
| 13 | 06/17 | 12:00 | 78 | 60 | 55 | 29.90 | NNW | 8 | 0.00 |
| 14 | 06/17 | 11:00 | 78 | 62 | 60 | 29.89 | N | 3 | 0.00 |
| 15 | 06/17 | 10:00 | 76 | 63 | 66 | 29.89 | NW | 9 | 0.00 |
| 16 | 06/17 | 09:00 | 74 | 63 | 70 | 29.89 | NW | 6 | 0.00 |
| 17 | 06/17 | 08:00 | 72 | 64 | 77 | 29.88 | WNW | 7 | 0.00 |
| 18 | 06/17 | 07:00 | 69 | 64 | 85 | 29.88 | WSW | 2 | 0.00 |
| 19 | 06/17 | 06:00 | 67 | 65 | 94 | 29.87 | WSW | 0 | 0.00 |
| 20 | 06/17 | 05:00 | 68 | 67 | 97 | 29.85 | WSW | 2 | 0.00 |
| 21 | 06/17 | 04:00 | 69 | 68 | 98 | 29.85 | SW | 0 | 0.00 |
| 22 | 06/17 | 03:00 | 71 | 70 | 98 | 29.85 | SW | 2 | 0.00 |
| 23 | 06/17 | 02:00 | 72 | 71 | 98 | 29.85 | SW | 2 | 0.00 |
| 24 | 06/17 | 01:00 | 73 | 72 | 98 | 29.86 | W | 4 | 0.02 |